Aurora, IL

10:04 AM CST en Noviembre 26, 2014 (GMT -0600)
Stonehaven | Change Station
CLOSE
Current Station
Estación meteorológica personal
Location: Aurora, IL
Altura: 699 ft
Estaciones meteorológicas cercanas

Alt 699 ft 41.74 °N, 88.21 °W | Updated 12 minutes ago

Nublado
Nublado
26.1 ° F
Sensación térmica 22 ° F
N
3.7
Viento Variable Viento desde SSE

Hoy
Alta -- | Baja -- ° F
--% Posibilidad de precipitaciones
Ayer
Alta -- | Baja -- ° F
Precip. -- pul
6:55 AM 4:25 PM
Creciente, 20% visible
Presión 30.17 pul
Visibilidad 6.0 Millas
Nubes Muy nublado 1800 ft
Vientos helados 22 ° F
Punto de rocío 21 ° F
Humedad 81%
Precipitaciones 0.00 pul
Espesor de la nieve No disponible.
UV 1 de una escala de 12
Polen .10 de una escala de 12
Calidad del aire No disponible.
Flu Activity No disponible.
METAR KDPA 261552Z 15009KT 6SM BR BKN018 M05/M07 A3014 RMK AO2 SLP217 T10501072

More Conditions Fewer Conditions

Presión 30.17 pul
Visibilidad 6.0 Millas
Nubes Muy nublado 1800 ft
Vientos helados 22 ° F
Punto de rocío 21 ° F
Humedad 81%
Precipitaciones 0.00 pul
Espesor de la nieve No disponible.
UV 1 de una escala de 12
Polen .10 de una escala de 12
Calidad del aire No disponible.
Flu Activity No disponible.
METAR KDPA 261552Z 15009KT 6SM BR BKN018 M05/M07 A3014 RMK AO2 SLP217 T10501072

More Conditions Fewer Conditions

10-Day Weather Forecast

Almanac

Astronomía

Nov. 26, 2014 Salida Puesta
Hora real
Crepúsculo civil
Crepúsculo náutico
Crepúsculo astronómico
Luna
Horas de luz
Horas de luz
Tomorrow will be .
, % of the Moon is Illuminated

Extremos de hoy

Máximos del estado Bajos del estado

Community

WunderPhotos

Upload Photos

1,773,780 ¡fotos cargadas!

WunderBlogs® & News

Nearby

Calidad del aire

  Calidad del aire Índice AQ Contaminante
Not available.

Grosos de nieve

Estación Profundido Altura

Actividad de terremotos

Ciudad Distance Mag. Tiempo y dato
Magnitud mínima muestra es 2,5.

Temperaturas de aguas costeras

Lugar Temperatura

Estaciones meteorológicas cercanas